Time;durP1;ratioP1;P1;durP2;ratioP2;P2;SDS_P1;SDS_P2;PMS_P1;PMS_P2;Temp;Humidity;BMP_temperature;BMP_pressure;BME280_temperature;BME280_humidity;BME280_pressure;Samples;Min_cycle;Max_cycle;Signal;HPM_P1;HPM_P2
2022/12/22 03:25:51;;;;;;;4.30;2.00;;;;;;;9.67;nan;99623.03;4995955;28;20045;-86
2022/12/22 03:28:17;;;;;;;3.10;1.75;;;;;;;9.71;nan;99625.19;4997762;28;20034;-86
2022/12/22 03:30:43;;;;;;;5.50;2.10;;;;;;;9.75;nan;99615.13;4995707;28;20031;-87
2022/12/22 03:33:09;;;;;;;4.05;1.80;;;;;;;9.75;nan;99615.13;4994979;28;20069;-86
2022/12/22 03:35:34;;;;;;;4.13;2.03;;;;;;;9.74;nan;99614.28;4994549;28;20027;-86
2022/12/22 03:38:02;;;;;;;2.97;1.70;;;;;;;9.79;nan;99598.75;4994912;28;20687;-86
2022/12/22 03:40:31;;;;;;;2.30;1.67;;;;;;;9.82;nan;99604.69;4995248;28;20030;-87
2022/12/22 03:48:24;;;;;;;3.92;1.73;;;;;;;9.84;nan;99590.31;4992684;28;20530;-86
2022/12/22 03:50:49;;;;;;;3.47;1.90;;;;;;;9.83;nan;99591.34;4993778;28;20034;-85
2022/12/22 03:53:14;;;;;;;3.08;1.60;;;;;;;9.80;nan;99594.31;4989425;28;20093;-87
2022/12/22 03:55:39;;;;;;;2.92;1.60;;;;;;;9.77;nan;99597.28;4990952;28;20042;-86
2022/12/22 03:58:05;;;;;;;2.65;1.60;;;;;;;9.74;nan;99597.63;4995920;28;20085;-87
2022/12/22 04:00:30;;;;;;;3.53;1.58;;;;;;;9.77;nan;99598.13;4994378;28;20600;-87
2022/12/22 04:02:57;;;;;;;3.40;1.60;;;;;;;9.78;nan;99596.31;5011571;28;20030;-86
2022/12/22 04:05:23;;;;;;;2.45;1.33;;;;;;;9.82;nan;99584.41;4994694;28;20031;-86
2022/12/22 04:07:48;;;;;;;5.30;1.70;;;;;;;9.83;nan;99588.69;4990679;28;20044;-86
2022/12/22 04:12:57;;;;;;;4.03;1.50;;;;;;;9.88;nan;99583.72;4993589;28;20431;-86
2022/12/22 04:15:26;;;;;;;5.10;1.75;;;;;;;9.93;nan;99575.28;4990372;28;20042;-87
2022/12/22 04:17:52;;;;;;;3.38;1.55;;;;;;;9.96;nan;99583.72;4990911;28;20042;-87
2022/12/22 04:20:19;;;;;;;4.15;1.70;;;;;;;10.01;nan;99577.91;4990401;28;20042;-87
2022/12/22 04:22:44;;;;;;;4.50;1.58;;;;;;;10.02;nan;99578.72;4988752;28;20121;-87
2022/12/22 04:25:10;;;;;;;2.65;1.50;;;;;;;10.04;nan;99574.09;4989074;28;20540;-87
2022/12/22 04:27:35;;;;;;;3.13;1.83;;;;;;;10.03;nan;99569.81;5000401;28;20053;-86
2022/12/22 04:30:00;;;;;;;2.88;1.65;;;;;;;10.00;nan;99565.69;4992516;28;20108;-85
2022/12/22 04:32:25;;;;;;;2.78;1.40;;;;;;;10.05;nan;99551.97;4990084;28;20049;-87
2022/12/22 04:34:51;;;;;;;4.18;1.40;;;;;;;10.03;nan;99546.84;4991305;28;20519;-86
2022/12/22 04:37:16;;;;;;;3.60;1.55;;;;;;;10.00;nan;99552.47;4989166;28;20117;-88
2022/12/22 04:39:41;;;;;;;3.28;1.48;;;;;;;9.89;nan;99561.63;4989286;28;20085;-87
2022/12/22 04:42:06;;;;;;;5.88;1.90;;;;;;;9.81;nan;99545.78;4988431;28;20506;-88
2022/12/22 04:44:32;;;;;;;4.00;1.73;;;;;;;9.76;nan;99554.22;4988947;28;20037;-87
2022/12/22 04:46:57;;;;;;;4.22;1.23;;;;;;;9.73;nan;99554.56;4989877;28;20076;-87
2022/12/22 04:49:22;;;;;;;5.15;1.80;;;;;;;9.68;nan;99545.53;4990389;28;20073;-88
2022/12/22 04:51:48;;;;;;;2.90;1.50;;;;;;;9.67;nan;99551.78;4988844;28;20052;-86
2022/12/22 04:54:13;;;;;;;2.72;1.50;;;;;;;9.66;nan;99552.78;4990787;28;20046;-87
2022/12/22 04:56:38;;;;;;;3.28;1.60;;;;;;;9.60;nan;99527.88;4992576;28;20030;-88
2022/12/22 04:59:03;;;;;;;4.18;1.55;;;;;;;9.60;nan;99530.50;4990439;28;20046;-87
2022/12/22 05:01:29;;;;;;;4.65;1.70;;;;;;;9.56;nan;99521.31;4980092;28;20058;-87
2022/12/22 05:03:54;;;;;;;3.65;1.73;;;;;;;9.54;nan;99529.38;4987420;28;20122;-87
2022/12/22 05:06:19;;;;;;;3.85;1.50;;;;;;;9.56;nan;99532.69;4981602;28;20031;-86
2022/12/22 05:08:45;;;;;;;3.75;1.70;;;;;;;9.54;nan;99524.09;4987972;28;20049;-87
2022/12/22 05:11:10;;;;;;;4.25;1.60;;;;;;;9.52;nan;99530.56;4990105;28;20473;-86
2022/12/22 05:13:35;;;;;;;4.15;1.50;;;;;;;9.51;nan;99539.44;4989967;28;20035;-86
2022/12/22 05:16:15;;;;;;;4.85;1.60;;;;;;;9.49;nan;99517.69;4987825;28;20400;-87
2022/12/22 05:18:42;;;;;;;4.78;1.67;;;;;;;9.49;nan;99528.25;4987647;28;20065;-87
2022/12/22 05:21:19;;;;;;;4.28;1.40;;;;;;;9.50;nan;99532.53;4980135;28;20053;-86
2022/12/22 05:23:45;;;;;;;4.10;1.63;;;;;;;9.49;nan;99531.72;4982843;28;20065;-86
2022/12/22 05:26:13;;;;;;;6.72;1.48;;;;;;;9.49;nan;99525.63;4987370;28;20038;-87
2022/12/22 05:28:39;;;;;;;4.53;1.80;;;;;;;9.50;nan;99530.72;4987903;28;20097;-88
2022/12/22 05:31:06;;;;;;;4.03;1.40;;;;;;;9.51;nan;99524.47;4987205;28;20038;-88
2022/12/22 05:33:32;;;;;;;3.60;1.50;;;;;;;9.55;nan;99532.84;4989597;28;20531;-87
2022/12/22 05:35:57;;;;;;;3.25;1.70;;;;;;;9.55;nan;99535.47;4989386;28;20031;-87
2022/12/22 05:38:23;;;;;;;5.00;1.70;;;;;;;9.59;nan;99535.97;4989892;28;20046;-87
2022/12/22 05:40:48;;;;;;;5.82;1.85;;;;;;;9.61;nan;99541.91;4991442;28;20050;-86
2022/12/22 05:43:14;;;;;;;4.97;1.73;;;;;;;9.62;nan;99531.16;4989523;28;20161;-87
2022/12/22 05:45:40;;;;;;;6.32;1.67;;;;;;;9.61;nan;99536.63;4987779;28;20040;-87
2022/12/22 05:48:05;;;;;;;3.88;1.85;;;;;;;9.63;nan;99537.25;4991057;28;20043;-86
2022/12/22 05:50:31;;;;;;;6.78;1.77;;;;;;;9.65;nan;99530.00;5004037;28;20062;-86
2022/12/22 05:52:57;;;;;;;4.40;1.90;;;;;;;9.63;nan;99534.63;4994831;28;20042;-86
2022/12/22 05:55:22;;;;;;;3.78;1.50;;;;;;;9.64;nan;99525.72;4988584;28;20571;-87
2022/12/22 05:57:48;;;;;;;5.55;1.50;;;;;;;9.66;nan;99527.22;4981176;28;20074;-86
2022/12/22 06:00:15;;;;;;;5.95;1.67;;;;;;;9.69;nan;99515.47;4990368;28;20519;-86
2022/12/22 06:02:42;;;;;;;4.55;1.60;;;;;;;9.71;nan;99524.06;4989278;28;20065;-87
2022/12/22 06:05:09;;;;;;;6.32;1.70;;;;;;;9.69;nan;99523.41;4990368;28;20650;-86
2022/12/22 06:07:35;;;;;;;5.22;2.05;;;;;;;9.69;nan;99518.13;4989488;28;20039;-87
2022/12/22 06:10:00;;;;;;;3.30;1.50;;;;;;;9.69;nan;99515.47;4986137;28;20583;-87
2022/12/22 06:12:25;;;;;;;5.13;1.55;;;;;;;9.68;nan;99511.22;5006289;28;20038;-87
2022/12/22 06:14:51;;;;;;;4.05;1.52;;;;;;;9.72;nan;99512.50;4991820;28;20493;-85
2022/12/22 06:17:16;;;;;;;4.45;1.38;;;;;;;9.80;nan;99517.75;4986300;28;20039;-87
2022/12/22 06:19:42;;;;;;;6.72;1.90;;;;;;;9.84;nan;99512.94;4987949;28;20085;-88
2022/12/22 06:22:07;;;;;;;5.63;1.73;;;;;;;9.86;nan;99510.94;4988146;28;20046;-86
2022/12/22 06:24:33;;;;;;;4.78;1.52;;;;;;;9.91;nan;99508.63;4988304;28;20042;-87
2022/12/22 06:26:58;;;;;;;4.90;1.58;;;;;;;9.92;nan;99512.91;4989793;28;20041;-87
2022/12/22 06:29:23;;;;;;;4.00;1.27;;;;;;;9.93;nan;99511.91;4994843;28;20042;-86
2022/12/22 06:31:48;;;;;;;4.85;1.45;;;;;;;9.97;nan;99521.97;4992715;28;20034;-87
2022/12/22 06:34:16;;;;;;;5.97;1.80;;;;;;;9.96;nan;99522.97;4994982;28;20058;-87
2022/12/22 06:36:43;;;;;;;4.72;1.45;;;;;;;9.96;nan;99528.25;4995103;28;20053;-86
2022/12/22 06:39:09;;;;;;;5.72;1.85;;;;;;;9.91;nan;99527.09;4994946;28;20034;-88
2022/12/22 06:44:18;;;;;;;8.48;1.60;;;;;;;9.82;nan;99515.78;4992910;28;20038;-87
2022/12/22 06:46:43;;;;;;;6.13;1.83;;;;;;;9.77;nan;99502.22;4992113;28;21464;-88
2022/12/22 06:49:09;;;;;;;4.25;1.30;;;;;;;9.78;nan;99509.19;4975085;28;20034;-87
2022/12/22 06:51:34;;;;;;;6.22;2.00;;;;;;;9.77;nan;99516.28;4991354;28;20030;-88
2022/12/22 06:53:59;;;;;;;6.45;1.70;;;;;;;9.77;nan;99497.81;4992555;28;20122;-88
2022/12/22 06:56:24;;;;;;;4.57;1.95;;;;;;;9.77;nan;99507.50;4995150;28;20420;-87
2022/12/22 06:58:50;;;;;;;6.15;1.75;;;;;;;9.76;nan;99506.69;4992031;28;20117;-85
2022/12/22 07:01:15;;;;;;;7.40;1.58;;;;;;;9.77;nan;99510.16;4984785;28;20193;-85
2022/12/22 07:03:40;;;;;;;5.78;1.45;;;;;;;9.77;nan;99499.59;4991856;28;20053;-86
2022/12/22 07:06:06;;;;;;;9.48;1.95;;;;;;;9.78;nan;99502.06;4988881;28;20057;-86
2022/12/22 07:08:31;;;;;;;7.63;1.60;;;;;;;9.76;nan;99508.53;4986960;28;20035;-86
2022/12/22 07:10:56;;;;;;;6.03;1.73;;;;;;;9.75;nan;99504.25;4983083;28;20104;-86
2022/12/22 07:13:27;;;;;;;7.72;1.95;;;;;;;9.76;nan;99505.88;4991615;28;20100;-87
2022/12/22 07:15:53;;;;;;;6.65;1.85;;;;;;;9.75;nan;99513.00;4992679;28;20035;-87
2022/12/22 07:18:18;;;;;;;5.82;1.88;;;;;;;9.73;nan;99508.88;4992427;28;20026;-87
2022/12/22 07:20:44;;;;;;;8.15;1.80;;;;;;;9.74;nan;99513.97;4990005;28;20031;-86
2022/12/22 07:23:09;;;;;;;7.53;1.80;;;;;;;9.74;nan;99519.25;4992725;28;20031;-87
2022/12/22 07:25:35;;;;;;;8.00;1.77;;;;;;;9.74;nan;99523.72;4989675;28;20051;-86
2022/12/22 07:28:00;;;;;;;7.65;1.52;;;;;;;9.72;nan;99521.22;4990779;28;20053;-87
2022/12/22 07:30:26;;;;;;;6.93;1.70;;;;;;;9.72;nan;99536.25;4989607;28;20188;-85
2022/12/22 07:32:52;;;;;;;7.28;2.00;;;;;;;9.73;nan;99520.25;4990852;28;20038;-87
2022/12/22 07:35:17;;;;;;;7.18;1.85;;;;;;;9.75;nan;99523.53;5002065;28;20042;-88
2022/12/22 07:37:42;;;;;;;4.60;1.95;;;;;;;9.74;nan;99535.09;4989482;28;20397;-88
2022/12/22 07:40:08;;;;;;;6.75;1.52;;;;;;;9.77;nan;99529.47;4990112;28;20030;-88
2022/12/22 07:42:45;;;;;;;8.45;1.85;;;;;;;9.78;nan;99539.03;4992075;28;20345;-86
2022/12/22 07:45:12;;;;;;;6.03;1.63;;;;;;;9.82;nan;99536.91;4993610;28;20539;-86
2022/12/22 07:47:38;;;;;;;7.38;2.03;;;;;;;9.82;nan;99536.91;4992952;28;20037;-86
2022/12/22 07:53:02;;;;;;;6.40;1.85;;;;;;;9.95;nan;99541.63;4990814;28;20041;-85
2022/12/22 07:55:30;;;;;;;7.57;1.67;;;;;;;10.00;nan;99544.56;5001418;28;20030;-84
2022/12/22 07:57:56;;;;;;;6.60;1.42;;;;;;;10.05;nan;99546.69;4993219;28;20039;-84
2022/12/22 08:00:22;;;;;;;7.55;2.10;;;;;;;10.09;nan;99542.72;5000594;28;20042;-84
2022/12/22 08:02:50;;;;;;;6.60;2.05;;;;;;;10.11;nan;99543.38;4999721;28;20189;-84
2022/12/22 08:05:15;;;;;;;8.82;1.63;;;;;;;10.14;nan;99550.94;4998649;28;20051;-84
2022/12/22 08:07:41;;;;;;;8.10;1.83;;;;;;;10.16;nan;99554.22;4998324;28;20548;-85
2022/12/22 08:10:07;;;;;;;6.22;2.00;;;;;;;10.16;nan;99547.13;5007331;28;20038;-84
2022/12/22 08:12:32;;;;;;;7.18;1.98;;;;;;;10.18;nan;99544.31;4998813;28;20045;-85
2022/12/22 08:14:58;;;;;;;4.10;1.50;;;;;;;10.15;nan;99545.50;4994087;28;20546;-85
2022/12/22 08:17:25;;;;;;;6.55;1.70;;;;;;;10.19;nan;99544.13;4993875;28;20034;-85
2022/12/22 08:19:50;;;;;;;7.75;1.80;;;;;;;10.20;nan;99543.16;4997499;28;20034;-85
2022/12/22 08:22:16;;;;;;;8.35;2.08;;;;;;;10.24;nan;99550.72;4988167;28;20588;-85
2022/12/22 08:24:41;;;;;;;6.55;1.70;;;;;;;10.26;nan;99552.19;4990178;28;20039;-86
2022/12/22 08:27:12;;;;;;;9.10;1.90;;;;;;;10.29;nan;99543.94;4995881;28;20034;-85
2022/12/22 08:29:43;;;;;;;7.40;1.80;;;;;;;10.29;nan;99549.22;4997949;28;20048;-85
2022/12/22 08:32:11;;;;;;;6.75;1.95;;;;;;;10.34;nan;99548.69;4995971;28;20192;-85
2022/12/22 08:34:37;;;;;;;9.73;2.70;;;;;;;10.30;nan;99547.44;4999933;28;20034;-84
2022/12/22 08:37:07;;;;;;;6.88;1.85;;;;;;;10.36;nan;99544.06;5001663;28;20049;-85
2022/12/22 08:39:38;;;;;;;7.32;1.60;;;;;;;10.37;nan;99541.25;4998604;28;20038;-84
2022/12/22 08:42:05;;;;;;;;;;;;;;;10.46;nan;99536.72;4996963;28;20061;-85
2022/12/22 08:44:30;;;;;;;7.15;2.17;;;;;;;10.54;nan;99541.97;4999287;28;19928;-85
2022/12/22 08:46:58;;;;;;;8.45;2.20;;;;;;;10.59;nan;99547.56;4997143;28;20412;-85
2022/12/22 08:49:24;;;;;;;10.57;2.33;;;;;;;10.61;nan;99542.09;4999350;28;20069;-85
2022/12/22 08:51:51;;;;;;;8.55;2.28;;;;;;;10.61;nan;99540.28;4997521;28;20113;-86
2022/12/22 08:54:16;;;;;;;9.77;2.83;;;;;;;10.68;nan;99542.19;5000391;28;20464;-85
2022/12/22 08:56:42;;;;;;;8.43;2.45;;;;;;;10.68;nan;99535.13;5000605;28;20069;-85
2022/12/22 08:59:08;;;;;;;9.18;2.20;;;;;;;10.69;nan;99539.38;4992126;28;20038;-85
2022/12/22 09:01:37;;;;;;;11.55;2.65;;;;;;;10.70;nan;99548.97;4999731;28;20122;-84
2022/12/22 09:04:04;;;;;;;8.15;2.55;;;;;;;10.71;nan;99533.94;4999265;28;20221;-85
2022/12/22 09:06:30;;;;;;;11.55;2.50;;;;;;;10.72;nan;99544.31;4998074;28;20050;-85
2022/12/22 09:08:57;;;;;;;10.02;2.40;;;;;;;10.75;nan;99548.41;4997714;28;20042;-85
2022/12/22 09:11:23;;;;;;;13.13;2.47;;;;;;;10.76;nan;99550.09;4997331;28;20038;-85
2022/12/22 09:13:51;;;;;;;9.70;2.30;;;;;;;10.80;nan;99540.81;4997532;28;20050;-85
2022/12/22 09:16:19;;;;;;;10.43;2.45;;;;;;;10.80;nan;99541.63;5002347;28;20042;-85
2022/12/22 09:18:44;;;;;;;10.80;2.50;;;;;;;10.86;nan;99542.72;4987266;28;20035;-86
2022/12/22 09:21:10;;;;;;;10.88;2.58;;;;;;;10.87;nan;99540.91;4997984;28;20535;-85
2022/12/22 09:23:35;;;;;;;15.27;3.28;;;;;;;10.89;nan;99546.84;4998000;28;20034;-85
2022/12/22 09:26:07;;;;;;;11.20;2.47;;;;;;;10.90;nan;99546.66;4999544;28;20041;-85
2022/12/22 09:28:32;;;;;;;14.05;2.53;;;;;;;10.93;nan;99554.25;4996994;28;20038;-85
2022/12/22 09:30:58;;;;;;;12.38;2.75;;;;;;;11.00;nan;99555.16;4998220;28;20133;-85
2022/12/22 09:33:25;;;;;;;10.60;2.42;;;;;;;10.99;nan;99556.19;4999670;28;20038;-86
2022/12/22 09:35:50;;;;;;;11.00;2.30;;;;;;;11.00;nan;99546.41;5003887;28;20045;-86
2022/12/22 09:38:16;;;;;;;10.07;2.85;;;;;;;11.07;nan;99552.63;4999073;28;20042;-86
2022/12/22 09:40:41;;;;;;;9.13;2.15;;;;;;;11.10;nan;99546.97;5015944;28;20034;-86
2022/12/22 09:43:13;;;;;;;11.10;2.38;;;;;;;11.06;nan;99572.16;4999802;28;20057;-86
2022/12/22 09:45:38;;;;;;;7.40;2.22;;;;;;;11.05;nan;99576.63;4992073;28;20504;-88
2022/12/22 09:48:05;;;;;;;6.95;1.80;;;;;;;11.08;nan;99578.09;4982320;28;20184;-88
2022/12/22 09:50:32;;;;;;;9.02;2.40;;;;;;;11.09;nan;99576.28;4986595;28;20041;-87
2022/12/22 09:53:02;;;;;;;9.13;2.28;;;;;;;11.02;nan;99581.44;4988786;28;20045;-86
2022/12/22 09:55:48;;;;;;;11.57;2.42;;;;;;;10.99;nan;99589.75;4984502;28;20044;-87
2022/12/22 09:58:20;;;;;;;8.30;2.03;;;;;;;10.92;nan;99591.47;4983581;28;20423;-86
2022/12/22 10:00:51;;;;;;;5.38;1.70;;;;;;;10.88;nan;99584.88;4987583;28;20097;-87
2022/12/22 10:03:30;;;;;;;6.15;1.70;;;;;;;10.82;nan;99592.53;4985636;28;20093;-87
2022/12/22 10:06:09;;;;;;;8.02;1.70;;;;;;;10.67;nan;99594.25;4991338;28;20121;-88
2022/12/22 10:08:37;;;;;;;6.13;2.17;;;;;;;10.54;nan;99609.88;4990287;28;20053;-87
2022/12/22 10:11:02;;;;;;;5.05;1.60;;;;;;;10.49;nan;99609.59;4991638;28;20030;-87
2022/12/22 10:13:28;;;;;;;9.48;1.75;;;;;;;10.45;nan;99606.44;4990785;28;20089;-86
2022/12/22 10:15:54;;;;;;;6.18;1.90;;;;;;;10.42;nan;99606.81;4991111;28;20069;-88
2022/12/22 10:18:22;;;;;;;6.55;1.40;;;;;;;10.35;nan;99600.56;4991303;28;20489;-88
2022/12/22 10:21:11;;;;;;;5.97;1.75;;;;;;;10.38;nan;99619.53;4988250;28;20081;-87
2022/12/22 10:23:39;;;;;;;4.47;1.27;;;;;;;10.38;nan;99626.66;4990327;28;20416;-87
2022/12/22 10:26:12;;;;;;;5.72;1.73;;;;;;;10.37;nan;99625.00;4990172;28;20057;-89
2022/12/22 10:28:42;;;;;;;4.97;1.20;;;;;;;10.40;nan;99624.66;4990232;28;20120;-87
2022/12/22 10:31:26;;;;;;;3.67;0.93;;;;;;;10.42;nan;99625.31;4990543;28;20042;-88
2022/12/22 10:33:54;;;;;;;2.38;0.80;;;;;;;10.43;nan;99618.19;4984045;28;20092;-87
2022/12/22 10:36:31;;;;;;;2.50;0.70;;;;;;;10.41;nan;99635.03;4991261;28;20035;-86
2022/12/22 10:39:07;;;;;;;3.67;0.90;;;;;;;10.46;nan;99636.34;4991839;28;20117;-85
2022/12/22 10:41:46;;;;;;;2.58;0.85;;;;;;;10.48;nan;99631.72;4990755;28;20031;-87
2022/12/22 10:44:13;;;;;;;2.60;1.05;;;;;;;10.49;nan;99644.78;4990088;28;20109;-85
2022/12/22 10:46:42;;;;;;;1.65;0.70;;;;;;;10.48;nan;99635.19;5005737;28;20681;-87
2022/12/22 10:49:13;;;;;;;1.80;0.68;;;;;;;10.38;nan;99647.78;4986826;28;20100;-86
2022/12/22 10:51:41;;;;;;;2.80;1.05;;;;;;;10.32;nan;99646.66;4989384;28;20072;-86
2022/12/22 10:54:06;;;;;;;2.05;0.77;;;;;;;10.24;nan;99651.94;4987942;28;20101;-86
2022/12/22 10:56:33;;;;;;;1.88;0.68;;;;;;;10.21;nan;99647.81;4992587;28;20038;-86
2022/12/22 10:59:01;;;;;;;3.60;0.80;;;;;;;10.25;nan;99656.25;4986429;28;20038;-86
2022/12/22 11:01:34;;;;;;;3.65;0.75;;;;;;;10.37;nan;99659.38;4998098;28;20527;-88
2022/12/22 11:04:23;;;;;;;4.00;0.85;;;;;;;10.47;nan;99659.16;4983408;28;20050;-86
2022/12/22 11:06:50;;;;;;;3.13;0.80;;;;;;;10.59;nan;99658.59;4987244;28;20578;-87
2022/12/22 11:09:15;;;;;;;2.28;0.73;;;;;;;10.67;nan;99670.94;4990942;28;20054;-88
2022/12/22 11:11:58;;;;;;;2.70;0.80;;;;;;;10.66;nan;99669.28;4986846;28;20040;-87
2022/12/22 11:14:56;;;;;;;2.75;0.70;;;;;;;10.70;nan;99673.25;4988149;28;20137;-86
2022/12/22 11:17:30;;;;;;;2.92;1.17;;;;;;;10.80;nan;99673.03;4997463;28;20547;-87
2022/12/22 11:20:33;;;;;;;5.53;1.80;;;;;;;10.86;nan;99682.06;4991622;28;20046;-85
2022/12/22 11:23:37;;;;;;;3.65;1.80;;;;;;;10.86;nan;99674.97;4980537;28;20138;-86
2022/12/22 11:26:10;;;;;;;3.50;1.77;;;;;;;10.87;nan;99670.50;4978386;28;20114;-86
2022/12/22 11:28:56;;;;;;;2.20;1.00;;;;;;;10.80;nan;99681.78;4987411;28;20046;-86
2022/12/22 11:31:55;;;;;;;4.65;1.85;;;;;;;10.84;nan;99700.75;4983760;28;20436;-87
2022/12/22 11:34:33;;;;;;;5.22;2.47;;;;;;;10.92;nan;99684.03;4981323;28;20041;-87
2022/12/22 11:37:33;;;;;;;3.15;1.65;;;;;;;10.91;nan;99692.94;4988202;28;20049;-87
2022/12/22 11:40:29;;;;;;;5.67;2.37;;;;;;;10.88;nan;99699.41;4983795;28;20100;-87
2022/12/22 11:43:16;;;;;;;5.60;2.63;;;;;;;10.91;nan;99699.06;4983092;28;20034;-86
2022/12/22 11:45:50;;;;;;;4.15;1.65;;;;;;;10.90;nan;99704.53;4989775;28;20035;-87
2022/12/22 11:48:40;;;;;;;2.85;1.38;;;;;;;10.90;nan;99715.13;4983242;28;20134;-86
2022/12/22 11:51:29;;;;;;;2.28;0.88;;;;;;;10.93;nan;99722.69;4991076;28;20531;-86
2022/12/22 11:54:16;;;;;;;1.42;0.70;;;;;;;10.83;nan;99715.81;4988364;28;20046;-86
2022/12/22 11:56:49;;;;;;;3.90;1.38;;;;;;;10.86;nan;99706.69;4990389;28;20762;-86
2022/12/22 11:59:36;;;;;;;3.20;1.65;;;;;;;10.83;nan;99726.38;4987781;28;20423;-86
2022/12/22 12:02:30;;;;;;;3.22;1.55;;;;;;;10.74;nan;99737.19;5002526;28;20703;-89
2022/12/22 12:05:19;;;;;;;4.00;1.52;;;;;;;10.69;nan;99740.34;4978934;28;20046;-88
2022/12/22 12:08:09;;;;;;;2.55;1.13;;;;;;;10.76;nan;99735.19;4988064;28;20138;-89
2022/12/22 12:10:50;;;;;;;4.25;1.80;;;;;;;10.81;nan;99748.72;4975345;28;20105;-89
2022/12/22 12:13:31;;;;;;;7.20;3.40;;;;;;;10.75;nan;99749.38;4990147;28;20496;-87
2022/12/22 12:16:12;;;;;;;4.05;1.88;;;;;;;10.74;nan;99739.81;4991134;28;20038;-88
2022/12/22 12:18:40;;;;;;;;;;;;;;;10.75;nan;99754.69;4990169;28;20054;-87
2022/12/22 12:21:40;;;;;;;5.75;2.80;;;;;;;10.67;nan;99749.44;4983060;28;20292;-88
2022/12/22 12:24:18;;;;;;;3.17;2.00;;;;;;;10.73;nan;99752.22;5002865;28;20504;-88
2022/12/22 12:26:50;;;;;;;4.18;1.90;;;;;;;10.65;nan;99759.34;4988840;28;20117;-90
2022/12/22 12:29:19;;;;;;;4.63;2.55;;;;;;;10.60;nan;99763.31;4989516;28;20053;-87
2022/12/22 12:32:03;;;;;;;2.42;1.00;;;;;;;10.66;nan;99772.41;4989104;28;20065;-87
2022/12/22 12:34:32;;;;;;;1.00;0.75;;;;;;;10.71;nan;99770.06;4990367;28;20034;-87
2022/12/22 12:37:11;;;;;;;2.20;0.98;;;;;;;10.77;nan;99781.78;4989448;28;20074;-89
2022/12/22 12:39:51;;;;;;;2.80;0.70;;;;;;;10.78;nan;99783.44;4989437;28;20121;-88
2022/12/22 12:42:31;;;;;;;4.27;1.60;;;;;;;10.73;nan;99801.66;4986971;28;20411;-87
2022/12/22 12:44:58;;;;;;;2.65;1.52;;;;;;;10.73;nan;99805.09;4971806;28;20118;-89
2022/12/22 12:47:25;;;;;;;3.42;1.77;;;;;;;10.69;nan;99802.97;4988975;28;20057;-87
2022/12/22 12:50:01;;;;;;;2.63;1.45;;;;;;;10.72;nan;99815.84;4989809;28;20106;-88
2022/12/22 12:52:38;;;;;;;1.88;1.10;;;;;;;10.76;nan;99817.16;4988651;28;20038;-87
2022/12/22 12:55:19;;;;;;;1.10;0.63;;;;;;;10.79;nan;99815.00;4989453;28;20404;-89
2022/12/22 12:57:47;;;;;;;1.45;0.80;;;;;;;10.82;nan;99819.97;4990519;28;20129;-89
2022/12/22 13:00:45;;;;;;;1.50;0.50;;;;;;;10.80;nan;99819.28;4988887;28;20034;-89
2022/12/22 13:03:31;;;;;;;1.20;0.70;;;;;;;10.77;nan;99824.09;4978311;28;20069;-88
2022/12/22 13:05:58;;;;;;;0.90;0.52;;;;;;;10.81;nan;99823.56;4970142;28;20046;-87
2022/12/22 13:08:30;;;;;;;1.33;0.60;;;;;;;10.82;nan;99830.53;4983234;28;20043;-88
2022/12/22 13:10:56;;;;;;;1.17;0.60;;;;;;;10.82;nan;99840.25;4992880;28;20057;-88
2022/12/22 13:13:24;;;;;;;2.03;0.70;;;;;;;10.84;nan;99830.34;5008893;28;20464;-88
2022/12/22 13:16:01;;;;;;;3.35;0.90;;;;;;;10.84;nan;99838.28;5005286;28;20041;-87
2022/12/22 13:18:32;;;;;;;1.83;1.10;;;;;;;10.84;nan;99838.28;4973200;28;20616;-88
2022/12/22 13:21:07;;;;;;;2.17;1.10;;;;;;;10.81;nan;99842.09;4970847;28;20102;-88
2022/12/22 13:23:39;;;;;;;3.30;1.40;;;;;;;10.79;nan;99843.25;4998846;28;20094;-87
2022/12/22 13:26:21;;;;;;;7.28;2.47;;;;;;;10.74;nan;99851.69;4994461;28;20092;-88
2022/12/22 13:29:07;;;;;;;3.47;1.20;;;;;;;10.72;nan;99861.63;4970882;28;20070;-88
2022/12/22 13:31:44;;;;;;;0.65;0.50;;;;;;;10.77;nan;99864.59;4987625;28;20150;-88
2022/12/22 13:34:21;;;;;;;1.20;0.70;;;;;;;10.75;nan;99868.38;4989385;28;20085;-87
2022/12/22 13:36:49;;;;;;;0.77;0.50;;;;;;;10.74;nan;99869.38;5005432;28;20030;-88
2022/12/22 13:39:15;;;;;;;0.80;0.60;;;;;;;10.72;nan;99874.00;4994448;28;20038;-89
2022/12/22 13:41:44;;;;;;;1.08;0.60;;;;;;;10.66;nan;99875.53;4998036;28;20030;-90
2022/12/22 13:44:15;;;;;;;1.08;0.52;;;;;;;10.47;nan;99870.59;4994215;28;20034;-88
2022/12/22 13:46:41;;;;;;;1.27;0.60;;;;;;;10.35;nan;99873.59;4988968;28;20093;-90
2022/12/22 13:49:11;;;;;;;1.42;0.70;;;;;;;10.23;nan;99877.53;4988961;28;20046;-88
2022/12/22 13:51:38;;;;;;;0.73;0.50;;;;;;;10.17;nan;99883.47;4988420;28;20034;-90
2022/12/22 13:54:17;;;;;;;1.65;0.60;;;;;;;10.10;nan;99887.75;4988118;28;20041;-89
2022/12/22 13:56:51;;;;;;;0.93;0.50;;;;;;;10.07;nan;99888.91;4988634;28;20117;-88
2022/12/22 13:59:26;;;;;;;0.93;0.52;;;;;;;10.07;nan;99877.50;4988891;28;20541;-89
2022/12/22 14:01:59;;;;;;;0.60;0.55;;;;;;;10.08;nan;99881.78;4989164;28;20525;-90
2022/12/22 14:04:25;;;;;;;1.10;0.60;;;;;;;10.12;nan;99883.94;4989475;28;20044;-88
2022/12/22 14:06:51;;;;;;;0.82;0.50;;;;;;;10.16;nan;99882.63;4988763;28;20030;-88
2022/12/22 14:09:24;;;;;;;1.00;0.65;;;;;;;10.19;nan;99879.66;4988375;28;20035;-89
2022/12/22 14:11:54;;;;;;;1.10;0.68;;;;;;;10.29;nan;99884.81;4989399;28;20041;-89
2022/12/22 14:14:30;;;;;;;1.80;0.70;;;;;;;10.39;nan;99882.84;4989135;28;20496;-90
2022/12/22 14:16:58;;;;;;;1.52;0.70;;;;;;;10.47;nan;99891.75;4988522;28;20034;-89
2022/12/22 14:19:25;;;;;;;0.90;0.52;;;;;;;10.49;nan;99887.13;4990230;28;20034;-90
2022/12/22 14:22:13;;;;;;;0.95;0.70;;;;;;;10.53;nan;99891.06;4988608;28;20062;-89
2022/12/22 14:24:47;;;;;;;0.88;0.60;;;;;;;10.56;nan;99893.41;4988580;28;20034;-89
2022/12/22 14:27:51;;;;;;;2.55;1.30;;;;;;;10.54;nan;99896.19;4988330;28;20034;-89
2022/12/22 14:30:22;;;;;;;1.52;0.90;;;;;;;10.53;nan;99896.34;4987958;28;20061;-89
2022/12/22 14:32:49;;;;;;;1.35;0.90;;;;;;;10.56;nan;99901.34;4988671;28;20570;-88
2022/12/22 14:35:21;;;;;;;1.30;0.93;;;;;;;10.54;nan;99900.66;4990155;28;20043;-88
2022/12/22 14:37:50;;;;;;;2.33;0.90;;;;;;;10.50;nan;99904.63;4991352;28;20096;-92
2022/12/22 14:40:28;;;;;;;0.93;0.75;;;;;;;10.57;nan;99898.50;4988101;28;20042;-88
2022/12/22 14:42:55;;;;;;;1.20;0.75;;;;;;;10.58;nan;99896.69;4987841;28;20088;-88
2022/12/22 14:45:22;;;;;;;1.08;0.60;;;;;;;10.61;nan;99906.94;4987676;28;20535;-90
2022/12/22 14:47:47;;;;;;;0.57;0.57;;;;;;;10.62;nan;99908.56;4988127;28;20046;-88
2022/12/22 14:50:17;;;;;;;0.65;0.55;;;;;;;10.61;nan;99912.22;4990719;28;20042;-87
2022/12/22 14:52:45;;;;;;;0.80;0.50;;;;;;;10.65;nan;99907.41;4991283;28;20089;-89
2022/12/22 14:55:47;;;;;;;0.95;0.70;;;;;;;10.61;nan;99910.41;4991362;28;20030;-88
2022/12/22 14:58:20;;;;;;;0.80;0.60;;;;;;;10.61;nan;99910.41;4991207;28;20034;-88
2022/12/22 15:00:48;;;;;;;0.70;0.60;;;;;;;10.62;nan;99909.41;4991526;28;20068;-89
2022/12/22 15:03:31;;;;;;;1.00;0.60;;;;;;;10.63;nan;99905.78;4991969;28;20080;-88
2022/12/22 15:06:21;;;;;;;1.50;0.60;;;;;;;10.65;nan;99899.47;4991733;28;21158;-88
2022/12/22 15:08:46;;;;;;;1.75;0.65;;;;;;;10.65;nan;99912.69;4991300;28;20042;-88
2022/12/22 15:11:17;;;;;;;1.50;0.68;;;;;;;10.66;nan;99909.91;4991670;28;20042;-90
2022/12/22 15:13:48;;;;;;;2.85;0.70;;;;;;;10.68;nan;99912.34;4992938;28;20035;-88
2022/12/22 15:16:16;;;;;;;2.15;0.88;;;;;;;10.65;nan;99910.88;4991974;28;20034;-88
2022/12/22 15:18:41;;;;;;;3.10;1.25;;;;;;;10.65;nan;99918.00;4991109;28;20400;-87
2022/12/22 15:21:10;;;;;;;2.75;1.20;;;;;;;10.61;nan;99912.22;4990638;28;20034;-89
2022/12/22 15:23:36;;;;;;;3.45;1.33;;;;;;;10.57;nan;99901.16;4988994;28;20034;-89
2022/12/22 15:26:01;;;;;;;2.55;1.00;;;;;;;10.55;nan;99904.94;4973709;28;20400;-88
2022/12/22 15:28:26;;;;;;;2.78;1.30;;;;;;;10.52;nan;99902.66;4998628;28;20034;-89
2022/12/22 15:30:51;;;;;;;2.22;1.10;;;;;;;10.53;nan;99909.56;4991200;28;20053;-89
2022/12/22 15:33:18;;;;;;;2.78;1.10;;;;;;;10.50;nan;99921.31;4990610;28;20455;-88
2022/12/22 15:35:44;;;;;;;2.50;1.10;;;;;;;10.50;nan;99917.84;4990791;28;20088;-87
2022/12/22 15:38:15;;;;;;;2.53;0.90;;;;;;;10.36;nan;99909.56;4989486;28;20041;-88
2022/12/22 15:40:42;;;;;;;3.70;1.10;;;;;;;10.25;nan;99917.81;4991706;28;20034;-91
2022/12/22 15:43:07;;;;;;;2.47;0.95;;;;;;;10.19;nan;99913.19;4989840;28;20041;-89
2022/12/22 15:45:35;;;;;;;2.65;1.10;;;;;;;10.14;nan;99923.44;4990245;28;20378;-89
2022/12/22 15:48:01;;;;;;;1.65;0.80;;;;;;;10.09;nan;99915.16;4989048;28;20042;-91